Ester, AK

7:44 PM AKDT on September 17, 2014 (GMT -0800)
Ballaine Road & Lynx Lane | Change Station
CLOSE
Current Station
Personal Weather Station
Location: Fairbanks, AK
Elevation: 829 ft
Nearby Weather Stations

Elev 829 ft 64.90 °N, 147.83 °W | Updated 27 minutes ago

Mostly Cloudy
Mostly Cloudy
55.2 °F
Feels Like 55.2 °F
N
30.4
Wind Variable Wind from NW
Gusts 30.4 mph

Today
High -- | Low -- °F
--% Chance of Precip.
Yesterday
High -- | Low -- °F
Precip. -- in
7:21 AM 8:11 PM
Waning Crescent, 30% visible
Pressure 29.26 in
Visibility 10.0 miles
Clouds Few 7000 ft
Mostly Cloudy 20000 ft
Dew Point 26 °F
Humidity 32%
Rainfall 0.00 in
Snow Depth 0 in , 136 in , 1 in
UV 0 out of 12
Pollen Not available.
Air Quality Not available.
Flu Activity Not available.
METAR PAFA 180253Z 09004KT 10SM FEW070 BKN200 17/01 A2924 RMK AO2 SLP907 T01720006 56023 $

More Conditions Fewer Conditions

Pressure 29.26 in
Visibility 10.0 miles
Clouds Few 7000 ft
Mostly Cloudy 20000 ft
Dew Point 26 °F
Humidity 32%
Rainfall 0.00 in
Snow Depth 0 in , 136 in , 1 in
UV 0 out of 12
Pollen Not available.
Air Quality Not available.
Flu Activity Not available.
METAR PAFA 180253Z 09004KT 10SM FEW070 BKN200 17/01 A2924 RMK AO2 SLP907 T01720006 56023 $

More Conditions Fewer Conditions

10-Day Weather Forecast

Almanac

Astronomy

Sep. 17, 2014 Rise Set
Actual Time 7:21 AM AKDT 8:11 PM AKDT
Civil Twilight 6:31 AM AKDT 9:01 PM AKDT
Nautical Twilight 5:28 AM AKDT 10:03 PM AKDT
Astronomical Twilight 4:10 AM AKDT 11:19 PM AKDT
Moon No Moon Rise 6:01 PM AKDT (9/17)
Length of Visible Light 14h 30m
Length of Day
12h 50m
Tomorrow will be 6m 40s shorter.
Waning Crescent, 30% of the Moon is Illuminated
Today
Waning Crescent
Sep 24
New
Oct 1
First Quarter
Oct 8
Full
Oct 15
Last Quarter

Today's Extremes

State Highs State Lows

Community

WunderPhotos

Upload Photos

1,754,283 photos uploaded!

Nearby

Snow Depth

Station Depth Elevation
Moraine 0 in 2100 ft
Nuka Glacier 136 in 1250 ft
Atigun Pass 2 in 4800 ft
Indian Pass 1 in 2300 ft
Upper Chena 1 in 2850 ft

Earthquake Activity

City Distance Mag. Time & Date
No recent earthquake activity has been reported nearby.
Minimum magnitude displayed is 2.5.

Coastal Water Temperatures

Place Temperature
No Stations Reporting

Nearby Weather Stations